Terminal Aerodrome Forecast
Issued by NWS

Home | Current Version | Previous Version | Text Only | Print | Product List | Glossary On
Versions: 1 2 3 4 5 6 7 8 9 10 11 12 13 14 15 16 17 18 19 20 21 22 23 24 25 26
000
FTUS44 KLUB 231403 AAB
TAFCDS
TAF AMD
KCDS 231403Z 2314/2412 14011KT 1/4SM FG OVC002
     FM231500 12011KT 3SM BR BKN004 OVC015
     FM231700 17015KT P6SM -TSRA SCT010CB BKN035 OVC100
     FM232300 16013KT P6SM SCT010 BKN040
     FM240900 15007KT P6SM SCT008 BKN010=

USA.gov is the U.S. government's official web portal to all federal, state and local government web resources and services.